createdAt,value
2019-06-26T00:01:05.121Z,89.33
2019-06-26T00:06:54.672Z,91.37
2019-06-26T00:12:36.316Z,93.50
2019-06-26T00:18:25.933Z,90.87
2019-06-26T00:24:06.681Z,94.03
2019-06-26T00:29:56.397Z,94.80
2019-06-26T00:35:37.051Z,87.67
2019-06-26T00:41:17.956Z,92.67
2019-06-26T00:46:58.812Z,93.47
2019-06-26T00:52:49.046Z,90.57
2019-06-26T00:58:30.010Z,88.10
2019-06-26T01:04:15.305Z,91.43
2019-06-26T01:09:55.993Z,87.67
2019-06-26T01:15:36.830Z,93.10
2019-06-26T01:21:26.591Z,90.07
2019-06-26T01:27:16.231Z,89.30
2019-06-26T01:33:05.812Z,95.17
2019-06-26T01:38:46.756Z,92.70
2019-06-26T01:44:27.763Z,88.00
2019-06-26T01:50:17.390Z,90.20
2019-06-26T01:55:58.446Z,89.47
2019-06-26T02:01:39.341Z,90.57
2019-06-26T02:07:20.144Z,92.07
2019-06-26T02:13:00.608Z,88.73
2019-06-26T02:18:48.489Z,91.10
2019-06-26T02:24:20.698Z,91.70
2019-06-26T02:30:01.585Z,93.40
2019-06-26T02:35:42.389Z,93.37
2019-06-26T02:41:23.055Z,93.40
2019-06-26T02:47:19.394Z,96.07
2019-06-26T02:52:54.950Z,94.30
2019-06-26T02:58:35.504Z,93.27
2019-06-26T03:04:16.317Z,99.33
2019-06-26T03:09:57.370Z,94.60
2019-06-26T03:15:38.140Z,92.87
2019-06-26T03:21:19.010Z,92.77
2019-06-26T03:26:50.948Z,93.23
2019-06-26T03:32:31.619Z,96.53
2019-06-26T03:38:12.265Z,87.10
2019-06-26T03:43:52.884Z,87.33
2019-06-26T03:49:33.720Z,86.20
2019-06-26T03:55:23.655Z,81.53
2019-06-26T04:01:04.436Z,84.60
2019-06-26T04:06:45.379Z,81.77
2019-06-26T04:12:26.137Z,82.20
2019-06-26T04:18:06.832Z,81.03
2019-06-26T04:23:47.858Z,80.17
2019-06-26T04:29:19.675Z,78.60
2019-06-26T04:35:00.316Z,77.50
2019-06-26T04:40:32.220Z,79.03
2019-06-26T04:46:13.093Z,80.13
2019-06-26T04:51:53.846Z,80.00
2019-06-26T04:57:34.640Z,78.93
2019-06-26T05:03:15.483Z,82.70
2019-06-26T05:08:56.610Z,76.97
2019-06-26T05:14:37.430Z,77.20
2019-06-26T05:20:18.273Z,79.47
2019-06-26T05:25:58.796Z,80.00
2019-06-26T05:31:30.503Z,82.80
2019-06-26T05:37:20.507Z,78.93
2019-06-26T05:43:01.475Z,76.87
2019-06-26T05:48:51.292Z,77.23
2019-06-26T05:54:32.386Z,75.23
2019-06-26T06:00:22.244Z,82.60
2019-06-26T06:06:11.970Z,76.67
2019-06-26T06:12:01.981Z,77.63
2019-06-26T06:17:51.510Z,77.73
2019-06-26T06:23:41.377Z,76.67
2019-06-26T06:29:21.741Z,75.23
2019-06-26T06:35:12.460Z,78.47
2019-06-26T06:40:44.034Z,75.17
2019-06-26T06:46:24.692Z,73.20
2019-06-26T06:52:05.354Z,75.73
2019-06-26T06:57:55.369Z,82.37
2019-06-26T07:03:35.932Z,74.47
2019-06-26T07:09:26.184Z,74.27
2019-06-26T07:15:17.383Z,75.03
2019-06-26T07:20:58.635Z,78.23
2019-06-26T07:26:48.341Z,73.40
2019-06-26T07:32:29.761Z,72.97
2019-06-26T07:38:01.883Z,73.27
2019-06-26T07:43:42.511Z,76.63
2019-06-26T07:49:25.268Z,76.47
2019-06-26T07:55:06.357Z,73.83
2019-06-26T08:00:47.060Z,73.50
2019-06-26T08:06:27.664Z,75.80
2019-06-26T08:12:08.247Z,80.30
2019-06-26T08:17:59.736Z,72.90
2019-06-26T08:23:31.626Z,73.07
2019-06-26T08:29:12.701Z,72.77
2019-06-26T08:34:53.657Z,70.20
2019-06-26T08:40:34.187Z,74.90
2019-06-26T08:46:24.014Z,75.90
2019-06-26T08:52:05.258Z,78.33
2019-06-26T08:57:55.203Z,75.97
2019-06-26T09:03:44.949Z,76.50
2019-06-26T09:09:34.638Z,73.33
2019-06-26T09:15:24.499Z,76.90
2019-06-26T09:21:05.194Z,73.47
2019-06-26T09:26:54.973Z,73.47
2019-06-26T09:32:45.085Z,75.37
2019-06-26T09:38:25.802Z,72.40
2019-06-26T09:44:15.691Z,73.47
2019-06-26T09:50:05.506Z,73.63
2019-06-26T09:55:54.970Z,76.93
2019-06-26T10:01:36.099Z,73.60
2019-06-26T10:07:25.784Z,74.57
2019-06-26T10:13:15.869Z,79.57
2019-06-26T10:19:10.283Z,75.50
2019-06-26T10:24:48.063Z,75.17
2019-06-26T10:30:37.563Z,74.50
2019-06-26T10:36:18.313Z,76.50
2019-06-26T10:41:59.329Z,73.77
2019-06-26T10:47:40.362Z,72.87
2019-06-26T10:53:30.206Z,76.17
2019-06-26T10:59:19.926Z,77.60
2019-06-26T11:05:00.650Z,76.07
2019-06-26T11:10:50.127Z,76.50
2019-06-26T11:16:31.215Z,75.87
2019-06-26T11:22:21.163Z,77.00
2019-06-26T11:28:11.063Z,77.17
2019-06-26T11:33:51.916Z,75.10
2019-06-26T11:39:32.712Z,76.93
2019-06-26T11:44:58.137Z,77.87
2019-06-26T11:50:38.691Z,82.03
2019-06-26T11:56:28.328Z,76.20
2019-06-26T12:02:18.313Z,77.40
2019-06-26T12:08:07.895Z,75.40
2019-06-26T12:13:48.465Z,73.50
2019-06-26T12:19:38.374Z,75.60
2019-06-26T12:25:27.946Z,77.07
2019-06-26T12:31:08.596Z,76.43
2019-06-26T12:36:49.592Z,73.40
2019-06-26T12:42:30.422Z,77.10
2019-06-26T12:48:11.316Z,77.30
2019-06-26T12:53:51.933Z,75.13
2019-06-26T12:59:33.902Z,78.93
2019-06-26T13:05:15.341Z,76.80
2019-06-26T13:10:56.169Z,80.23
2019-06-26T13:16:36.832Z,84.90
2019-06-26T13:22:17.598Z,78.70
2019-06-26T13:28:00.027Z,78.53
2019-06-26T13:33:42.338Z,80.70
2019-06-26T13:39:25.528Z,75.17
2019-06-26T13:45:15.350Z,76.90
2019-06-26T13:51:08.952Z,75.17
2019-06-26T13:56:41.082Z,74.30
2019-06-26T14:02:22.049Z,77.50
2019-06-26T14:08:02.993Z,80.53
2019-06-26T14:13:44.034Z,81.00
2019-06-26T14:19:33.946Z,78.60
2019-06-26T14:25:14.604Z,76.90
2019-06-26T14:30:55.532Z,75.57
2019-06-26T14:36:36.623Z,80.77
2019-06-26T14:42:17.169Z,77.30
2019-06-26T14:47:57.861Z,76.23
2019-06-26T14:53:38.756Z,81.63
2019-06-26T14:59:10.332Z,81.30
2019-06-26T15:04:50.868Z,85.30
2019-06-26T15:10:31.694Z,78.27
2019-06-26T15:16:12.634Z,79.47
2019-06-26T15:21:39.357Z,77.83
2019-06-26T15:27:20.176Z,75.80
2019-06-26T15:33:00.672Z,74.97
2019-06-26T15:38:41.400Z,77.30
2019-06-26T15:44:13.219Z,76.07
2019-06-26T15:49:54.069Z,79.97
2019-06-26T15:55:34.967Z,76.43
2019-06-26T16:01:15.681Z,76.77
2019-06-26T16:06:56.314Z,77.83
2019-06-26T16:12:37.016Z,81.90
2019-06-26T16:18:26.474Z,77.47
2019-06-26T16:24:07.431Z,77.57
2019-06-26T16:29:48.718Z,78.10
2019-06-26T16:35:29.531Z,78.03
2019-06-26T16:41:10.418Z,75.50
2019-06-26T16:46:51.438Z,79.50
2019-06-26T16:52:47.846Z,78.90
2019-06-26T16:58:22.804Z,82.40
2019-06-26T17:04:11.371Z,79.30
2019-06-26T17:09:54.487Z,81.47
2019-06-26T17:15:46.471Z,76.43
2019-06-26T17:21:38.060Z,79.07
2019-06-26T17:27:30.788Z,79.60
2019-06-26T17:33:20.756Z,81.90
2019-06-26T17:39:10.491Z,77.97
2019-06-26T17:44:51.200Z,78.53
2019-06-26T17:50:40.867Z,80.53
2019-06-26T17:56:30.500Z,83.70
2019-06-26T18:02:11.232Z,79.90
2019-06-26T18:08:00.928Z,80.40
2019-06-26T18:13:50.828Z,83.00
2019-06-26T18:19:40.522Z,83.10
2019-06-26T18:25:30.153Z,78.47
2019-06-26T18:31:11.129Z,79.40
2019-06-26T18:36:51.962Z,80.43
2019-06-26T18:42:41.728Z,78.93
2019-06-26T18:48:24.875Z,82.00
2019-06-26T18:54:05.093Z,82.17
2019-06-26T18:59:45.593Z,83.70
2019-06-26T19:05:11.311Z,80.80
2019-06-26T19:10:52.231Z,78.50
2019-06-26T19:16:36.142Z,82.90
2019-06-26T19:22:16.062Z,81.47
2019-06-26T19:27:56.689Z,86.13
2019-06-26T19:33:37.411Z,79.77
2019-06-26T19:39:28.428Z,85.13
2019-06-26T19:45:01.680Z,85.77
2019-06-26T19:50:44.602Z,83.47
2019-06-26T19:56:28.526Z,79.57
2019-06-26T20:02:09.358Z,81.60
2019-06-26T20:07:50.199Z,81.00
2019-06-26T20:13:31.135Z,82.83
2019-06-26T20:19:11.613Z,79.00
2019-06-26T20:24:52.159Z,88.00
2019-06-26T20:30:33.068Z,81.77
2019-06-26T20:36:14.016Z,84.30
2019-06-26T20:42:03.900Z,89.47
2019-06-26T20:47:53.630Z,84.60
2019-06-26T20:53:43.194Z,81.60
2019-06-26T20:59:32.821Z,83.73
2019-06-26T21:05:22.148Z,83.80
2019-06-26T21:10:47.884Z,82.77
2019-06-26T21:16:28.706Z,84.67
2019-06-26T21:22:18.417Z,85.57
2019-06-26T21:27:59.073Z,83.70
2019-06-26T21:33:48.964Z,84.50
2019-06-26T21:39:29.882Z,86.00
2019-06-26T21:45:02.012Z,84.23
2019-06-26T21:50:42.765Z,82.90
2019-06-26T21:56:23.782Z,82.20
2019-06-26T22:02:13.472Z,84.23
2019-06-26T22:08:03.388Z,83.73
2019-06-26T22:13:44.286Z,82.93
2019-06-26T22:19:34.124Z,83.20
2019-06-26T22:25:15.141Z,86.93
2019-06-26T22:30:55.940Z,87.80
2019-06-26T22:36:36.519Z,86.60
2019-06-26T22:42:17.729Z,88.40
2019-06-26T22:47:58.760Z,86.10
2019-06-26T22:53:39.325Z,86.37
2019-06-26T22:59:28.893Z,87.27
2019-06-26T23:05:09.654Z,85.07
2019-06-26T23:10:50.683Z,87.87
2019-06-26T23:16:31.581Z,88.77
2019-06-26T23:22:03.425Z,91.83
2019-06-26T23:27:43.915Z,90.40
2019-06-26T23:33:24.433Z,88.10
2019-06-26T23:39:06.016Z,94.23
2019-06-26T23:44:46.932Z,89.57
2019-06-26T23:50:28.077Z,85.87
2019-06-26T23:56:09.092Z,87.60
